sensor_id;sensor_type;location;lat;lon;timestamp;P1;durP1;ratioP1;P2;durP2;ratioP2
67819;SDS011;54618;52.018;5.576;2023-06-26T00:00:40;16.45;;;9.07;;
67819;SDS011;54618;52.018;5.576;2023-06-26T00:03:06;17.85;;;10.75;;
67819;SDS011;54618;52.018;5.576;2023-06-26T00:05:32;19.00;;;10.38;;
67819;SDS011;54618;52.018;5.576;2023-06-26T00:07:57;25.70;;;10.77;;
67819;SDS011;54618;52.018;5.576;2023-06-26T00:10:25;19.52;;;11.00;;
67819;SDS011;54618;52.018;5.576;2023-06-26T00:12:53;15.52;;;10.65;;
67819;SDS011;54618;52.018;5.576;2023-06-26T00:15:19;23.23;;;11.43;;
67819;SDS011;54618;52.018;5.576;2023-06-26T00:17:45;14.40;;;10.80;;
67819;SDS011;54618;52.018;5.576;2023-06-26T00:20:10;14.75;;;10.55;;
67819;SDS011;54618;52.018;5.576;2023-06-26T00:22:36;16.15;;;10.85;;
67819;SDS011;54618;52.018;5.576;2023-06-26T00:25:05;17.35;;;10.85;;
67819;SDS011;54618;52.018;5.576;2023-06-26T00:27:31;14.10;;;9.85;;
67819;SDS011;54618;52.018;5.576;2023-06-26T00:29:57;15.65;;;9.80;;
67819;SDS011;54618;52.018;5.576;2023-06-26T00:32:22;15.82;;;10.48;;
67819;SDS011;54618;52.018;5.576;2023-06-26T00:34:48;17.02;;;11.40;;
67819;SDS011;54618;52.018;5.576;2023-06-26T00:37:14;18.05;;;10.77;;
67819;SDS011;54618;52.018;5.576;2023-06-26T00:39:39;13.70;;;9.93;;
67819;SDS011;54618;52.018;5.576;2023-06-26T00:42:05;16.17;;;10.10;;
67819;SDS011;54618;52.018;5.576;2023-06-26T00:44:31;13.85;;;9.13;;
67819;SDS011;54618;52.018;5.576;2023-06-26T00:46:57;13.38;;;9.63;;
67819;SDS011;54618;52.018;5.576;2023-06-26T00:49:25;13.30;;;10.02;;
67819;SDS011;54618;52.018;5.576;2023-06-26T00:51:52;13.32;;;9.35;;
67819;SDS011;54618;52.018;5.576;2023-06-26T00:54:18;12.85;;;8.98;;
67819;SDS011;54618;52.018;5.576;2023-06-26T00:56:47;29.67;;;9.85;;
67819;SDS011;54618;52.018;5.576;2023-06-26T00:59:13;17.45;;;9.43;;
67819;SDS011;54618;52.018;5.576;2023-06-26T01:01:39;19.73;;;9.55;;
67819;SDS011;54618;52.018;5.576;2023-06-26T01:04:05;14.63;;;8.82;;
67819;SDS011;54618;52.018;5.576;2023-06-26T01:06:30;20.70;;;9.07;;
67819;SDS011;54618;52.018;5.576;2023-06-26T01:09:00;21.98;;;8.85;;
67819;SDS011;54618;52.018;5.576;2023-06-26T01:11:26;10.70;;;8.13;;
67819;SDS011;54618;52.018;5.576;2023-06-26T01:13:52;12.95;;;8.45;;
67819;SDS011;54618;52.018;5.576;2023-06-26T01:16:20;11.60;;;8.38;;
67819;SDS011;54618;52.018;5.576;2023-06-26T01:18:46;12.32;;;8.02;;
67819;SDS011;54618;52.018;5.576;2023-06-26T01:21:13;11.82;;;8.65;;
67819;SDS011;54618;52.018;5.576;2023-06-26T01:23:47;12.60;;;8.10;;
67819;SDS011;54618;52.018;5.576;2023-06-26T01:26:21;10.02;;;6.93;;
67819;SDS011;54618;52.018;5.576;2023-06-26T01:28:49;9.90;;;7.38;;
67819;SDS011;54618;52.018;5.576;2023-06-26T01:31:15;12.25;;;7.07;;
67819;SDS011;54618;52.018;5.576;2023-06-26T01:33:42;10.88;;;6.05;;
67819;SDS011;54618;52.018;5.576;2023-06-26T01:36:09;8.88;;;5.90;;
67819;SDS011;54618;52.018;5.576;2023-06-26T01:38:35;7.82;;;5.38;;
67819;SDS011;54618;52.018;5.576;2023-06-26T01:41:01;8.00;;;4.60;;
67819;SDS011;54618;52.018;5.576;2023-06-26T01:46:23;6.57;;;4.22;;
67819;SDS011;54618;52.018;5.576;2023-06-26T01:52:00;7.85;;;4.22;;
67819;SDS011;54618;52.018;5.576;2023-06-26T01:57:27;7.65;;;4.00;;
67819;SDS011;54618;52.018;5.576;2023-06-26T01:59:55;7.70;;;4.18;;
67819;SDS011;54618;52.018;5.576;2023-06-26T02:02:23;7.45;;;3.83;;
67819;SDS011;54618;52.018;5.576;2023-06-26T02:04:49;7.65;;;3.88;;
67819;SDS011;54618;52.018;5.576;2023-06-26T02:07:15;9.05;;;3.80;;
67819;SDS011;54618;52.018;5.576;2023-06-26T02:09:41;7.13;;;3.72;;
67819;SDS011;54618;52.018;5.576;2023-06-26T02:12:06;6.55;;;3.53;;
67819;SDS011;54618;52.018;5.576;2023-06-26T02:14:32;8.45;;;3.80;;
67819;SDS011;54618;52.018;5.576;2023-06-26T02:16:58;8.35;;;3.58;;
67819;SDS011;54618;52.018;5.576;2023-06-26T02:19:25;7.75;;;3.58;;
67819;SDS011;54618;52.018;5.576;2023-06-26T02:21:55;7.97;;;3.38;;
67819;SDS011;54618;52.018;5.576;2023-06-26T02:24:21;8.77;;;3.42;;
67819;SDS011;54618;52.018;5.576;2023-06-26T02:26:46;8.05;;;3.40;;
67819;SDS011;54618;52.018;5.576;2023-06-26T02:29:12;7.20;;;3.33;;
67819;SDS011;54618;52.018;5.576;2023-06-26T02:31:37;8.32;;;3.38;;
67819;SDS011;54618;52.018;5.576;2023-06-26T02:34:03;10.38;;;3.80;;
67819;SDS011;54618;52.018;5.576;2023-06-26T02:36:29;28.25;;;4.10;;
67819;SDS011;54618;52.018;5.576;2023-06-26T02:38:55;8.57;;;3.55;;
67819;SDS011;54618;52.018;5.576;2023-06-26T02:41:20;9.32;;;3.40;;
67819;SDS011;54618;52.018;5.576;2023-06-26T02:43:46;9.93;;;3.28;;
67819;SDS011;54618;52.018;5.576;2023-06-26T02:46:11;12.68;;;3.30;;
67819;SDS011;54618;52.018;5.576;2023-06-26T02:48:37;8.75;;;3.53;;
67819;SDS011;54618;52.018;5.576;2023-06-26T02:51:02;10.43;;;3.58;;
67819;SDS011;54618;52.018;5.576;2023-06-26T02:53:28;6.47;;;3.47;;
67819;SDS011;54618;52.018;5.576;2023-06-26T02:55:53;10.75;;;3.20;;
67819;SDS011;54618;52.018;5.576;2023-06-26T02:58:19;10.80;;;3.50;;
67819;SDS011;54618;52.018;5.576;2023-06-26T03:00:45;7.28;;;3.40;;
67819;SDS011;54618;52.018;5.576;2023-06-26T03:03:10;14.65;;;4.38;;
67819;SDS011;54618;52.018;5.576;2023-06-26T03:05:38;11.27;;;3.67;;
67819;SDS011;54618;52.018;5.576;2023-06-26T03:08:03;10.40;;;3.90;;
67819;SDS011;54618;52.018;5.576;2023-06-26T03:10:29;7.78;;;3.20;;
67819;SDS011;54618;52.018;5.576;2023-06-26T03:12:54;9.30;;;3.65;;
67819;SDS011;54618;52.018;5.576;2023-06-26T03:15:20;15.70;;;4.25;;
67819;SDS011;54618;52.018;5.576;2023-06-26T03:17:45;10.50;;;3.53;;
67819;SDS011;54618;52.018;5.576;2023-06-26T03:20:11;8.55;;;3.70;;
67819;SDS011;54618;52.018;5.576;2023-06-26T03:22:37;11.40;;;3.92;;
67819;SDS011;54618;52.018;5.576;2023-06-26T03:25:02;9.75;;;3.65;;
67819;SDS011;54618;52.018;5.576;2023-06-26T03:27:28;8.93;;;3.78;;
67819;SDS011;54618;52.018;5.576;2023-06-26T03:29:54;11.82;;;4.15;;
67819;SDS011;54618;52.018;5.576;2023-06-26T03:32:19;12.73;;;4.22;;
67819;SDS011;54618;52.018;5.576;2023-06-26T03:34:45;17.90;;;4.43;;
67819;SDS011;54618;52.018;5.576;2023-06-26T03:37:11;11.35;;;3.90;;
67819;SDS011;54618;52.018;5.576;2023-06-26T03:39:36;10.90;;;4.20;;
67819;SDS011;54618;52.018;5.576;2023-06-26T03:42:02;10.18;;;3.80;;
67819;SDS011;54618;52.018;5.576;2023-06-26T03:44:27;11.30;;;4.13;;
67819;SDS011;54618;52.018;5.576;2023-06-26T03:46:53;8.63;;;3.90;;
67819;SDS011;54618;52.018;5.576;2023-06-26T03:49:19;11.30;;;3.80;;
67819;SDS011;54618;52.018;5.576;2023-06-26T03:51:45;13.77;;;4.18;;
67819;SDS011;54618;52.018;5.576;2023-06-26T03:54:10;12.70;;;3.78;;
67819;SDS011;54618;52.018;5.576;2023-06-26T03:56:36;13.15;;;4.20;;
67819;SDS011;54618;52.018;5.576;2023-06-26T03:59:02;15.23;;;4.25;;
67819;SDS011;54618;52.018;5.576;2023-06-26T04:01:27;10.15;;;3.90;;
67819;SDS011;54618;52.018;5.576;2023-06-26T04:03:53;14.43;;;4.43;;
67819;SDS011;54618;52.018;5.576;2023-06-26T04:06:19;10.52;;;4.10;;
67819;SDS011;54618;52.018;5.576;2023-06-26T04:08:45;13.43;;;4.15;;
67819;SDS011;54618;52.018;5.576;2023-06-26T04:11:10;12.82;;;4.40;;
67819;SDS011;54618;52.018;5.576;2023-06-26T04:13:36;13.45;;;4.35;;
67819;SDS011;54618;52.018;5.576;2023-06-26T04:16:01;14.18;;;4.32;;
67819;SDS011;54618;52.018;5.576;2023-06-26T04:18:27;11.82;;;3.92;;
67819;SDS011;54618;52.018;5.576;2023-06-26T04:21:06;14.93;;;4.03;;
67819;SDS011;54618;52.018;5.576;2023-06-26T04:23:34;12.70;;;4.38;;
67819;SDS011;54618;52.018;5.576;2023-06-26T04:25:59;11.88;;;4.05;;
67819;SDS011;54618;52.018;5.576;2023-06-26T04:28:25;12.80;;;4.05;;
67819;SDS011;54618;52.018;5.576;2023-06-26T04:30:51;11.80;;;3.53;;
67819;SDS011;54618;52.018;5.576;2023-06-26T04:33:18;12.75;;;4.10;;
67819;SDS011;54618;52.018;5.576;2023-06-26T04:35:44;12.02;;;3.95;;
67819;SDS011;54618;52.018;5.576;2023-06-26T04:38:09;12.25;;;3.95;;
67819;SDS011;54618;52.018;5.576;2023-06-26T04:40:36;14.07;;;4.88;;
67819;SDS011;54618;52.018;5.576;2023-06-26T04:43:01;17.85;;;4.57;;
67819;SDS011;54618;52.018;5.576;2023-06-26T04:45:27;12.10;;;4.32;;
67819;SDS011;54618;52.018;5.576;2023-06-26T04:47:55;10.23;;;3.63;;
67819;SDS011;54618;52.018;5.576;2023-06-26T04:50:22;9.70;;;3.42;;
67819;SDS011;54618;52.018;5.576;2023-06-26T04:52:47;12.98;;;4.13;;
67819;SDS011;54618;52.018;5.576;2023-06-26T04:55:13;13.32;;;3.80;;
67819;SDS011;54618;52.018;5.576;2023-06-26T04:57:38;12.32;;;4.20;;
67819;SDS011;54618;52.018;5.576;2023-06-26T05:00:04;14.88;;;4.10;;
67819;SDS011;54618;52.018;5.576;2023-06-26T05:02:34;13.30;;;4.05;;
67819;SDS011;54618;52.018;5.576;2023-06-26T05:05:00;11.60;;;3.95;;
67819;SDS011;54618;52.018;5.576;2023-06-26T05:07:26;8.45;;;3.42;;
67819;SDS011;54618;52.018;5.576;2023-06-26T05:09:51;11.85;;;3.85;;
67819;SDS011;54618;52.018;5.576;2023-06-26T05:12:17;8.98;;;3.33;;
67819;SDS011;54618;52.018;5.576;2023-06-26T05:14:42;10.13;;;3.30;;
67819;SDS011;54618;52.018;5.576;2023-06-26T05:17:08;10.13;;;3.55;;
67819;SDS011;54618;52.018;5.576;2023-06-26T05:19:34;11.98;;;3.35;;
67819;SDS011;54618;52.018;5.576;2023-06-26T05:22:00;10.80;;;3.08;;
67819;SDS011;54618;52.018;5.576;2023-06-26T05:24:28;9.73;;;3.20;;
67819;SDS011;54618;52.018;5.576;2023-06-26T05:26:55;8.82;;;3.08;;
67819;SDS011;54618;52.018;5.576;2023-06-26T05:29:21;7.00;;;2.92;;
67819;SDS011;54618;52.018;5.576;2023-06-26T05:31:47;11.48;;;3.13;;
67819;SDS011;54618;52.018;5.576;2023-06-26T05:34:16;9.20;;;3.15;;
67819;SDS011;54618;52.018;5.576;2023-06-26T05:36:43;11.52;;;3.58;;
67819;SDS011;54618;52.018;5.576;2023-06-26T05:39:09;10.85;;;3.25;;
67819;SDS011;54618;52.018;5.576;2023-06-26T05:41:35;12.98;;;2.75;;
67819;SDS011;54618;52.018;5.576;2023-06-26T05:44:01;7.75;;;2.42;;
67819;SDS011;54618;52.018;5.576;2023-06-26T05:46:26;5.55;;;2.40;;
67819;SDS011;54618;52.018;5.576;2023-06-26T05:48:52;9.18;;;2.88;;
67819;SDS011;54618;52.018;5.576;2023-06-26T05:51:18;5.93;;;2.40;;
67819;SDS011;54618;52.018;5.576;2023-06-26T05:53:44;6.18;;;2.60;;
67819;SDS011;54618;52.018;5.576;2023-06-26T05:56:10;4.25;;;1.98;;
67819;SDS011;54618;52.018;5.576;2023-06-26T05:58:36;6.78;;;2.42;;
67819;SDS011;54618;52.018;5.576;2023-06-26T06:01:01;5.70;;;2.10;;
67819;SDS011;54618;52.018;5.576;2023-06-26T06:03:27;6.50;;;2.03;;
67819;SDS011;54618;52.018;5.576;2023-06-26T06:05:55;5.30;;;2.20;;
67819;SDS011;54618;52.018;5.576;2023-06-26T06:08:20;4.22;;;1.90;;
67819;SDS011;54618;52.018;5.576;2023-06-26T06:10:46;7.25;;;1.80;;
67819;SDS011;54618;52.018;5.576;2023-06-26T06:13:12;6.90;;;2.10;;
67819;SDS011;54618;52.018;5.576;2023-06-26T06:15:37;5.32;;;2.25;;
67819;SDS011;54618;52.018;5.576;2023-06-26T06:18:03;7.10;;;2.08;;
67819;SDS011;54618;52.018;5.576;2023-06-26T06:20:28;4.90;;;1.65;;
67819;SDS011;54618;52.018;5.576;2023-06-26T06:22:54;3.88;;;1.90;;
67819;SDS011;54618;52.018;5.576;2023-06-26T06:25:19;5.18;;;2.13;;
67819;SDS011;54618;52.018;5.576;2023-06-26T06:27:45;5.22;;;1.90;;
67819;SDS011;54618;52.018;5.576;2023-06-26T06:30:11;3.90;;;2.00;;
67819;SDS011;54618;52.018;5.576;2023-06-26T06:32:36;3.00;;;1.67;;
67819;SDS011;54618;52.018;5.576;2023-06-26T06:35:02;8.00;;;1.85;;
67819;SDS011;54618;52.018;5.576;2023-06-26T06:37:34;8.50;;;1.90;;
67819;SDS011;54618;52.018;5.576;2023-06-26T06:40:00;6.68;;;2.10;;
67819;SDS011;54618;52.018;5.576;2023-06-26T06:42:25;5.82;;;2.00;;
67819;SDS011;54618;52.018;5.576;2023-06-26T06:44:51;7.20;;;2.45;;
67819;SDS011;54618;52.018;5.576;2023-06-26T06:47:16;4.93;;;2.15;;
67819;SDS011;54618;52.018;5.576;2023-06-26T06:49:42;5.38;;;1.80;;
67819;SDS011;54618;52.018;5.576;2023-06-26T06:52:08;4.75;;;1.80;;
67819;SDS011;54618;52.018;5.576;2023-06-26T06:54:44;6.07;;;2.10;;
67819;SDS011;54618;52.018;5.576;2023-06-26T06:57:27;4.28;;;1.77;;
67819;SDS011;54618;52.018;5.576;2023-06-26T06:59:52;6.50;;;2.03;;
67819;SDS011;54618;52.018;5.576;2023-06-26T07:02:19;7.70;;;2.20;;
67819;SDS011;54618;52.018;5.576;2023-06-26T07:04:44;6.63;;;2.15;;
67819;SDS011;54618;52.018;5.576;2023-06-26T07:07:10;4.82;;;1.88;;
67819;SDS011;54618;52.018;5.576;2023-06-26T07:09:38;6.13;;;2.30;;
67819;SDS011;54618;52.018;5.576;2023-06-26T07:12:04;4.63;;;2.10;;
67819;SDS011;54618;52.018;5.576;2023-06-26T07:14:30;4.35;;;1.90;;
67819;SDS011;54618;52.018;5.576;2023-06-26T07:16:55;4.38;;;2.00;;
67819;SDS011;54618;52.018;5.576;2023-06-26T07:19:21;3.58;;;2.00;;
67819;SDS011;54618;52.018;5.576;2023-06-26T07:21:46;6.38;;;2.10;;
67819;SDS011;54618;52.018;5.576;2023-06-26T07:24:12;6.85;;;2.00;;
67819;SDS011;54618;52.018;5.576;2023-06-26T07:26:37;4.35;;;1.90;;
67819;SDS011;54618;52.018;5.576;2023-06-26T07:29:03;4.43;;;1.90;;
67819;SDS011;54618;52.018;5.576;2023-06-26T07:31:29;6.70;;;1.80;;
67819;SDS011;54618;52.018;5.576;2023-06-26T07:33:55;4.47;;;2.15;;
67819;SDS011;54618;52.018;5.576;2023-06-26T07:36:20;4.70;;;1.83;;
67819;SDS011;54618;52.018;5.576;2023-06-26T07:38:46;6.20;;;2.35;;
67819;SDS011;54618;52.018;5.576;2023-06-26T07:41:12;7.30;;;2.20;;
67819;SDS011;54618;52.018;5.576;2023-06-26T07:43:37;5.45;;;2.10;;
67819;SDS011;54618;52.018;5.576;2023-06-26T07:46:03;6.07;;;2.00;;
67819;SDS011;54618;52.018;5.576;2023-06-26T07:48:28;6.55;;;2.05;;
67819;SDS011;54618;52.018;5.576;2023-06-26T07:50:54;6.13;;;2.35;;
67819;SDS011;54618;52.018;5.576;2023-06-26T07:53:20;5.07;;;2.42;;
67819;SDS011;54618;52.018;5.576;2023-06-26T07:55:45;6.63;;;2.17;;
67819;SDS011;54618;52.018;5.576;2023-06-26T07:58:11;5.18;;;2.30;;
67819;SDS011;54618;52.018;5.576;2023-06-26T08:00:36;7.93;;;2.30;;
67819;SDS011;54618;52.018;5.576;2023-06-26T08:03:02;5.20;;;2.38;;
67819;SDS011;54618;52.018;5.576;2023-06-26T08:05:28;4.72;;;1.90;;
67819;SDS011;54618;52.018;5.576;2023-06-26T08:07:54;6.78;;;2.55;;
67819;SDS011;54618;52.018;5.576;2023-06-26T08:10:19;5.97;;;2.28;;
67819;SDS011;54618;52.018;5.576;2023-06-26T08:12:45;5.78;;;2.38;;
67819;SDS011;54618;52.018;5.576;2023-06-26T08:15:11;5.25;;;2.25;;
67819;SDS011;54618;52.018;5.576;2023-06-26T08:17:37;6.63;;;2.30;;
67819;SDS011;54618;52.018;5.576;2023-06-26T08:20:03;15.02;;;2.83;;
67819;SDS011;54618;52.018;5.576;2023-06-26T08:22:30;6.15;;;2.40;;
67819;SDS011;54618;52.018;5.576;2023-06-26T08:24:55;6.18;;;2.25;;
67819;SDS011;54618;52.018;5.576;2023-06-26T08:27:21;5.70;;;2.30;;
67819;SDS011;54618;52.018;5.576;2023-06-26T08:29:47;4.90;;;2.00;;
67819;SDS011;54618;52.018;5.576;2023-06-26T08:32:12;7.10;;;1.60;;
67819;SDS011;54618;52.018;5.576;2023-06-26T08:34:38;6.35;;;2.05;;
67819;SDS011;54618;52.018;5.576;2023-06-26T08:37:04;5.20;;;1.92;;
67819;SDS011;54618;52.018;5.576;2023-06-26T08:39:29;7.40;;;2.05;;
67819;SDS011;54618;52.018;5.576;2023-06-26T08:41:55;5.07;;;1.75;;
67819;SDS011;54618;52.018;5.576;2023-06-26T08:44:21;4.43;;;2.00;;
67819;SDS011;54618;52.018;5.576;2023-06-26T08:46:49;7.90;;;2.00;;
67819;SDS011;54618;52.018;5.576;2023-06-26T08:49:28;5.38;;;2.03;;
67819;SDS011;54618;52.018;5.576;2023-06-26T08:52:06;6.40;;;1.70;;
67819;SDS011;54618;52.018;5.576;2023-06-26T08:54:42;8.52;;;1.50;;
67819;SDS011;54618;52.018;5.576;2023-06-26T08:57:11;4.57;;;1.30;;
67819;SDS011;54618;52.018;5.576;2023-06-26T08:59:37;3.85;;;1.42;;
67819;SDS011;54618;52.018;5.576;2023-06-26T09:02:03;7.25;;;1.60;;
67819;SDS011;54618;52.018;5.576;2023-06-26T09:04:29;5.32;;;1.98;;
67819;SDS011;54618;52.018;5.576;2023-06-26T09:06:55;8.23;;;1.60;;
67819;SDS011;54618;52.018;5.576;2023-06-26T09:09:21;8.40;;;1.30;;
67819;SDS011;54618;52.018;5.576;2023-06-26T09:11:46;5.30;;;1.35;;
67819;SDS011;54618;52.018;5.576;2023-06-26T09:14:12;4.18;;;1.05;;
67819;SDS011;54618;52.018;5.576;2023-06-26T09:16:39;4.63;;;1.27;;
67819;SDS011;54618;52.018;5.576;2023-06-26T09:19:10;4.35;;;1.20;;
67819;SDS011;54618;52.018;5.576;2023-06-26T09:21:37;4.35;;;1.20;;
67819;SDS011;54618;52.018;5.576;2023-06-26T09:24:07;6.10;;;1.20;;
67819;SDS011;54618;52.018;5.576;2023-06-26T09:26:39;5.85;;;1.17;;
67819;SDS011;54618;52.018;5.576;2023-06-26T09:29:05;7.15;;;1.30;;
67819;SDS011;54618;52.018;5.576;2023-06-26T09:31:36;3.53;;;0.88;;
67819;SDS011;54618;52.018;5.576;2023-06-26T09:34:02;6.30;;;1.02;;
67819;SDS011;54618;52.018;5.576;2023-06-26T09:36:29;3.00;;;0.90;;
67819;SDS011;54618;52.018;5.576;2023-06-26T09:39:01;5.90;;;1.20;;
67819;SDS011;54618;52.018;5.576;2023-06-26T09:41:27;4.55;;;1.00;;
67819;SDS011;54618;52.018;5.576;2023-06-26T09:43:57;3.00;;;0.93;;
67819;SDS011;54618;52.018;5.576;2023-06-26T09:46:28;8.38;;;1.10;;
67819;SDS011;54618;52.018;5.576;2023-06-26T09:49:01;7.25;;;1.10;;
67819;SDS011;54618;52.018;5.576;2023-06-26T09:51:30;2.28;;;0.80;;
67819;SDS011;54618;52.018;5.576;2023-06-26T09:53:57;3.42;;;0.85;;
67819;SDS011;54618;52.018;5.576;2023-06-26T09:56:27;2.85;;;1.02;;
67819;SDS011;54618;52.018;5.576;2023-06-26T09:58:55;4.68;;;1.10;;
67819;SDS011;54618;52.018;5.576;2023-06-26T10:01:22;3.85;;;1.02;;
67819;SDS011;54618;52.018;5.576;2023-06-26T10:03:52;4.55;;;1.20;;
67819;SDS011;54618;52.018;5.576;2023-06-26T10:06:26;6.05;;;1.05;;
67819;SDS011;54618;52.018;5.576;2023-06-26T10:08:56;5.82;;;1.08;;
67819;SDS011;54618;52.018;5.576;2023-06-26T10:11:29;3.00;;;0.82;;
67819;SDS011;54618;52.018;5.576;2023-06-26T10:13:59;8.73;;;1.40;;
67819;SDS011;54618;52.018;5.576;2023-06-26T10:16:28;3.38;;;1.10;;
67819;SDS011;54618;52.018;5.576;2023-06-26T10:19:01;3.03;;;0.95;;
67819;SDS011;54618;52.018;5.576;2023-06-26T10:21:29;3.60;;;1.00;;
67819;SDS011;54618;52.018;5.576;2023-06-26T10:23:59;3.28;;;1.00;;
67819;SDS011;54618;52.018;5.576;2023-06-26T10:26:25;2.80;;;1.15;;
67819;SDS011;54618;52.018;5.576;2023-06-26T10:28:52;6.80;;;1.20;;
67819;SDS011;54618;52.018;5.576;2023-06-26T10:31:23;2.75;;;0.95;;
67819;SDS011;54618;52.018;5.576;2023-06-26T10:33:51;4.53;;;1.10;;
67819;SDS011;54618;52.018;5.576;2023-06-26T10:36:31;4.72;;;1.00;;
67819;SDS011;54618;52.018;5.576;2023-06-26T10:38:58;2.97;;;1.00;;
67819;SDS011;54618;52.018;5.576;2023-06-26T10:41:30;5.90;;;1.02;;
67819;SDS011;54618;52.018;5.576;2023-06-26T10:46:27;3.90;;;1.23;;
67819;SDS011;54618;52.018;5.576;2023-06-26T10:49:00;7.22;;;1.10;;
67819;SDS011;54618;52.018;5.576;2023-06-26T10:51:27;4.18;;;0.90;;
67819;SDS011;54618;52.018;5.576;2023-06-26T10:53:56;7.10;;;0.90;;
67819;SDS011;54618;52.018;5.576;2023-06-26T10:56:40;2.13;;;0.75;;
67819;SDS011;54618;52.018;5.576;2023-06-26T10:59:14;3.10;;;0.90;;
67819;SDS011;54618;52.018;5.576;2023-06-26T11:01:45;4.22;;;0.98;;
67819;SDS011;54618;52.018;5.576;2023-06-26T11:04:19;3.15;;;0.70;;
67819;SDS011;54618;52.018;5.576;2023-06-26T11:07:13;6.43;;;0.93;;
67819;SDS011;54618;52.018;5.576;2023-06-26T11:10:00;1.98;;;0.90;;
67819;SDS011;54618;52.018;5.576;2023-06-26T11:12:38;2.20;;;1.00;;
67819;SDS011;54618;52.018;5.576;2023-06-26T11:15:10;3.80;;;1.00;;
67819;SDS011;54618;52.018;5.576;2023-06-26T11:17:37;2.47;;;0.88;;
67819;SDS011;54618;52.018;5.576;2023-06-26T11:20:08;3.72;;;1.00;;
67819;SDS011;54618;52.018;5.576;2023-06-26T11:22:35;4.38;;;1.08;;
67819;SDS011;54618;52.018;5.576;2023-06-26T11:25:02;4.82;;;1.10;;
67819;SDS011;54618;52.018;5.576;2023-06-26T11:30:03;2.33;;;0.73;;
67819;SDS011;54618;52.018;5.576;2023-06-26T11:32:30;2.70;;;0.90;;
67819;SDS011;54618;52.018;5.576;2023-06-26T11:34:57;2.13;;;0.80;;
67819;SDS011;54618;52.018;5.576;2023-06-26T11:37:24;3.47;;;1.00;;
67819;SDS011;54618;52.018;5.576;2023-06-26T11:39:50;4.63;;;0.88;;
67819;SDS011;54618;52.018;5.576;2023-06-26T11:42:16;4.45;;;1.13;;
67819;SDS011;54618;52.018;5.576;2023-06-26T11:44:43;3.28;;;1.00;;
67819;SDS011;54618;52.018;5.576;2023-06-26T11:47:15;5.57;;;1.20;;
67819;SDS011;54618;52.018;5.576;2023-06-26T11:49:46;4.18;;;0.90;;
67819;SDS011;54618;52.018;5.576;2023-06-26T11:54:39;4.00;;;1.10;;
67819;SDS011;54618;52.018;5.576;2023-06-26T11:57:05;3.42;;;0.90;;
67819;SDS011;54618;52.018;5.576;2023-06-26T11:59:35;3.83;;;0.88;;
67819;SDS011;54618;52.018;5.576;2023-06-26T12:02:07;2.30;;;0.88;;
67819;SDS011;54618;52.018;5.576;2023-06-26T12:04:40;2.10;;;0.73;;
67819;SDS011;54618;52.018;5.576;2023-06-26T12:07:08;4.38;;;0.90;;
67819;SDS011;54618;52.018;5.576;2023-06-26T12:09:41;5.35;;;0.90;;
67819;SDS011;54618;52.018;5.576;2023-06-26T12:12:12;4.95;;;1.05;;
67819;SDS011;54618;52.018;5.576;2023-06-26T12:14:41;3.85;;;1.08;;
67819;SDS011;54618;52.018;5.576;2023-06-26T12:17:10;3.17;;;1.10;;
67819;SDS011;54618;52.018;5.576;2023-06-26T12:19:44;3.10;;;0.82;;
67819;SDS011;54618;52.018;5.576;2023-06-26T12:22:14;5.72;;;1.10;;
67819;SDS011;54618;52.018;5.576;2023-06-26T12:24:42;3.35;;;0.85;;
67819;SDS011;54618;52.018;5.576;2023-06-26T12:27:14;2.97;;;1.00;;
67819;SDS011;54618;52.018;5.576;2023-06-26T12:29:45;3.05;;;1.08;;
67819;SDS011;54618;52.018;5.576;2023-06-26T12:32:16;2.05;;;0.80;;
67819;SDS011;54618;52.018;5.576;2023-06-26T12:34:41;3.08;;;0.80;;
67819;SDS011;54618;52.018;5.576;2023-06-26T12:37:11;3.00;;;0.70;;
67819;SDS011;54618;52.018;5.576;2023-06-26T12:39:45;4.50;;;0.82;;
67819;SDS011;54618;52.018;5.576;2023-06-26T12:42:14;3.58;;;0.80;;
67819;SDS011;54618;52.018;5.576;2023-06-26T12:44:41;4.50;;;0.88;;
67819;SDS011;54618;52.018;5.576;2023-06-26T12:47:07;3.63;;;0.70;;
67819;SDS011;54618;52.018;5.576;2023-06-26T12:49:34;2.20;;;0.80;;
67819;SDS011;54618;52.018;5.576;2023-06-26T12:52:00;3.42;;;0.88;;
67819;SDS011;54618;52.018;5.576;2023-06-26T12:54:28;2.63;;;0.77;;
67819;SDS011;54618;52.018;5.576;2023-06-26T12:56:54;2.17;;;0.70;;
67819;SDS011;54618;52.018;5.576;2023-06-26T12:59:25;5.30;;;0.75;;
67819;SDS011;54618;52.018;5.576;2023-06-26T13:01:51;3.13;;;0.88;;
67819;SDS011;54618;52.018;5.576;2023-06-26T13:04:17;4.22;;;0.75;;
67819;SDS011;54618;52.018;5.576;2023-06-26T13:06:43;2.78;;;0.80;;
67819;SDS011;54618;52.018;5.576;2023-06-26T13:09:09;1.40;;;0.70;;
67819;SDS011;54618;52.018;5.576;2023-06-26T13:11:36;3.05;;;0.90;;
67819;SDS011;54618;52.018;5.576;2023-06-26T13:14:01;1.13;;;0.57;;
67819;SDS011;54618;52.018;5.576;2023-06-26T13:16:27;1.83;;;0.60;;
67819;SDS011;54618;52.018;5.576;2023-06-26T13:18:57;3.60;;;0.80;;
67819;SDS011;54618;52.018;5.576;2023-06-26T13:21:24;2.38;;;0.80;;
67819;SDS011;54618;52.018;5.576;2023-06-26T13:23:49;3.10;;;0.80;;
67819;SDS011;54618;52.018;5.576;2023-06-26T13:26:15;3.72;;;0.80;;
67819;SDS011;54618;52.018;5.576;2023-06-26T13:28:40;5.55;;;0.80;;
67819;SDS011;54618;52.018;5.576;2023-06-26T13:31:06;3.00;;;0.68;;
67819;SDS011;54618;52.018;5.576;2023-06-26T13:33:32;2.72;;;0.82;;
67819;SDS011;54618;52.018;5.576;2023-06-26T13:35:57;3.38;;;0.80;;
67819;SDS011;54618;52.018;5.576;2023-06-26T13:38:26;4.10;;;0.88;;
67819;SDS011;54618;52.018;5.576;2023-06-26T13:40:52;1.67;;;0.70;;
67819;SDS011;54618;52.018;5.576;2023-06-26T13:45:48;4.25;;;0.90;;
67819;SDS011;54618;52.018;5.576;2023-06-26T13:48:14;3.13;;;0.80;;
67819;SDS011;54618;52.018;5.576;2023-06-26T13:50:40;2.80;;;0.77;;
67819;SDS011;54618;52.018;5.576;2023-06-26T13:53:05;3.00;;;0.82;;
67819;SDS011;54618;52.018;5.576;2023-06-26T13:55:31;3.40;;;0.80;;
67819;SDS011;54618;52.018;5.576;2023-06-26T13:57:58;5.97;;;0.80;;
67819;SDS011;54618;52.018;5.576;2023-06-26T14:00:24;2.20;;;0.75;;
67819;SDS011;54618;52.018;5.576;2023-06-26T14:02:50;3.05;;;0.88;;
67819;SDS011;54618;52.018;5.576;2023-06-26T14:05:16;1.60;;;0.50;;
67819;SDS011;54618;52.018;5.576;2023-06-26T14:07:43;3.17;;;0.68;;
67819;SDS011;54618;52.018;5.576;2023-06-26T14:10:09;2.58;;;0.80;;
67819;SDS011;54618;52.018;5.576;2023-06-26T14:12:35;4.15;;;0.93;;
67819;SDS011;54618;52.018;5.576;2023-06-26T14:15:00;2.42;;;0.77;;
67819;SDS011;54618;52.018;5.576;2023-06-26T14:17:26;3.03;;;0.70;;
67819;SDS011;54618;52.018;5.576;2023-06-26T14:19:52;4.50;;;0.93;;
67819;SDS011;54618;52.018;5.576;2023-06-26T14:22:18;2.72;;;0.85;;
67819;SDS011;54618;52.018;5.576;2023-06-26T14:24:44;3.25;;;0.90;;
67819;SDS011;54618;52.018;5.576;2023-06-26T14:27:09;0.93;;;0.60;;
67819;SDS011;54618;52.018;5.576;2023-06-26T14:29:35;3.30;;;0.80;;
67819;SDS011;54618;52.018;5.576;2023-06-26T14:32:02;2.33;;;0.70;;
67819;SDS011;54618;52.018;5.576;2023-06-26T14:34:28;3.15;;;1.20;;
67819;SDS011;54618;52.018;5.576;2023-06-26T14:36:54;4.30;;;1.10;;
67819;SDS011;54618;52.018;5.576;2023-06-26T14:39:20;2.40;;;0.70;;
67819;SDS011;54618;52.018;5.576;2023-06-26T14:41:46;2.33;;;0.95;;
67819;SDS011;54618;52.018;5.576;2023-06-26T14:44:12;4.65;;;0.80;;
67819;SDS011;54618;52.018;5.576;2023-06-26T14:46:38;2.25;;;0.80;;
67819;SDS011;54618;52.018;5.576;2023-06-26T14:49:04;2.85;;;0.80;;
67819;SDS011;54618;52.018;5.576;2023-06-26T14:51:30;4.18;;;0.70;;
67819;SDS011;54618;52.018;5.576;2023-06-26T14:53:55;3.10;;;0.90;;
67819;SDS011;54618;52.018;5.576;2023-06-26T14:56:21;1.90;;;0.60;;
67819;SDS011;54618;52.018;5.576;2023-06-26T14:58:46;2.58;;;0.70;;
67819;SDS011;54618;52.018;5.576;2023-06-26T15:01:12;1.83;;;0.70;;